sensor_id;sensor_type;location;lat;lon;timestamp;temperature;humidity
19813;DHT22;10066;48.108;11.448;2023-04-03T00:00:32;1.70;99.90
19813;DHT22;10066;48.108;11.448;2023-04-03T00:02:59;1.70;99.90
19813;DHT22;10066;48.108;11.448;2023-04-03T00:05:28;1.60;99.90
19813;DHT22;10066;48.108;11.448;2023-04-03T00:07:54;1.60;99.90
19813;DHT22;10066;48.108;11.448;2023-04-03T00:10:22;1.60;99.90
19813;DHT22;10066;48.108;11.448;2023-04-03T00:12:49;1.60;99.90
19813;DHT22;10066;48.108;11.448;2023-04-03T00:15:16;1.60;99.90
19813;DHT22;10066;48.108;11.448;2023-04-03T00:17:43;1.50;99.90
19813;DHT22;10066;48.108;11.448;2023-04-03T00:20:11;1.50;99.90
19813;DHT22;10066;48.108;11.448;2023-04-03T00:22:40;1.50;99.90
19813;DHT22;10066;48.108;11.448;2023-04-03T00:25:08;1.50;99.90
19813;DHT22;10066;48.108;11.448;2023-04-03T00:27:36;1.50;99.90
19813;DHT22;10066;48.108;11.448;2023-04-03T00:30:06;1.50;99.90
19813;DHT22;10066;48.108;11.448;2023-04-03T00:32:34;1.50;99.90
19813;DHT22;10066;48.108;11.448;2023-04-03T00:35:01;1.60;99.90
19813;DHT22;10066;48.108;11.448;2023-04-03T00:37:28;1.60;99.90
19813;DHT22;10066;48.108;11.448;2023-04-03T00:39:56;1.60;99.90
19813;DHT22;10066;48.108;11.448;2023-04-03T00:42:23;1.60;99.90
19813;DHT22;10066;48.108;11.448;2023-04-03T00:45:26;1.60;99.90
19813;DHT22;10066;48.108;11.448;2023-04-03T00:47:54;1.70;99.90
19813;DHT22;10066;48.108;11.448;2023-04-03T00:50:22;1.70;99.90
19813;DHT22;10066;48.108;11.448;2023-04-03T00:52:49;1.70;99.90
19813;DHT22;10066;48.108;11.448;2023-04-03T00:55:19;1.80;99.90
19813;DHT22;10066;48.108;11.448;2023-04-03T00:57:47;1.70;99.90
19813;DHT22;10066;48.108;11.448;2023-04-03T01:00:17;1.70;99.90
19813;DHT22;10066;48.108;11.448;2023-04-03T01:02:45;1.70;99.90
19813;DHT22;10066;48.108;11.448;2023-04-03T01:05:13;1.70;99.90
19813;DHT22;10066;48.108;11.448;2023-04-03T01:07:41;1.70;99.90
19813;DHT22;10066;48.108;11.448;2023-04-03T01:10:10;1.70;99.90
19813;DHT22;10066;48.108;11.448;2023-04-03T01:12:42;1.80;99.90
19813;DHT22;10066;48.108;11.448;2023-04-03T01:15:11;1.80;99.90
19813;DHT22;10066;48.108;11.448;2023-04-03T01:17:41;1.80;99.90
19813;DHT22;10066;48.108;11.448;2023-04-03T01:20:35;1.80;99.90
19813;DHT22;10066;48.108;11.448;2023-04-03T01:23:25;1.80;99.90
19813;DHT22;10066;48.108;11.448;2023-04-03T01:25:54;1.90;99.90
19813;DHT22;10066;48.108;11.448;2023-04-03T01:28:24;1.90;99.90
19813;DHT22;10066;48.108;11.448;2023-04-03T01:30:58;1.90;99.90
19813;DHT22;10066;48.108;11.448;2023-04-03T01:33:28;1.90;99.90
19813;DHT22;10066;48.108;11.448;2023-04-03T01:35:56;1.90;99.90
19813;DHT22;10066;48.108;11.448;2023-04-03T01:38:23;1.90;99.90
19813;DHT22;10066;48.108;11.448;2023-04-03T01:40:50;1.90;99.90
19813;DHT22;10066;48.108;11.448;2023-04-03T01:43:16;1.90;99.90
19813;DHT22;10066;48.108;11.448;2023-04-03T01:45:43;1.90;99.90
19813;DHT22;10066;48.108;11.448;2023-04-03T01:48:12;1.90;99.90
19813;DHT22;10066;48.108;11.448;2023-04-03T01:50:40;1.90;99.90
19813;DHT22;10066;48.108;11.448;2023-04-03T01:53:08;2.00;99.90
19813;DHT22;10066;48.108;11.448;2023-04-03T01:55:35;2.00;99.90
19813;DHT22;10066;48.108;11.448;2023-04-03T01:58:02;2.00;99.90
19813;DHT22;10066;48.108;11.448;2023-04-03T02:00:29;2.00;99.90
19813;DHT22;10066;48.108;11.448;2023-04-03T02:02:56;2.00;99.90
19813;DHT22;10066;48.108;11.448;2023-04-03T02:05:23;2.10;99.90
19813;DHT22;10066;48.108;11.448;2023-04-03T02:07:51;2.10;99.90
19813;DHT22;10066;48.108;11.448;2023-04-03T02:10:18;2.00;99.90
19813;DHT22;10066;48.108;11.448;2023-04-03T02:12:45;2.00;99.90
19813;DHT22;10066;48.108;11.448;2023-04-03T02:15:12;2.10;99.90
19813;DHT22;10066;48.108;11.448;2023-04-03T02:17:39;2.10;99.90
19813;DHT22;10066;48.108;11.448;2023-04-03T02:20:07;2.10;99.90
19813;DHT22;10066;48.108;11.448;2023-04-03T02:22:34;2.00;99.90
19813;DHT22;10066;48.108;11.448;2023-04-03T02:25:03;2.10;99.90
19813;DHT22;10066;48.108;11.448;2023-04-03T02:27:30;2.10;99.90
19813;DHT22;10066;48.108;11.448;2023-04-03T02:29:57;2.10;99.90
19813;DHT22;10066;48.108;11.448;2023-04-03T02:32:24;2.10;99.90
19813;DHT22;10066;48.108;11.448;2023-04-03T02:34:51;2.10;99.90
19813;DHT22;10066;48.108;11.448;2023-04-03T02:37:18;2.10;99.90
19813;DHT22;10066;48.108;11.448;2023-04-03T02:39:45;2.10;99.90
19813;DHT22;10066;48.108;11.448;2023-04-03T02:42:13;1.90;99.90
19813;DHT22;10066;48.108;11.448;2023-04-03T02:44:40;2.00;99.90
19813;DHT22;10066;48.108;11.448;2023-04-03T02:47:06;2.00;99.90
19813;DHT22;10066;48.108;11.448;2023-04-03T02:49:34;2.00;99.90
19813;DHT22;10066;48.108;11.448;2023-04-03T02:52:01;1.90;99.90
19813;DHT22;10066;48.108;11.448;2023-04-03T02:54:27;1.90;99.90
19813;DHT22;10066;48.108;11.448;2023-04-03T02:56:56;1.90;99.90
19813;DHT22;10066;48.108;11.448;2023-04-03T02:59:25;2.00;99.90
19813;DHT22;10066;48.108;11.448;2023-04-03T03:01:52;1.90;99.90
19813;DHT22;10066;48.108;11.448;2023-04-03T03:04:19;1.90;99.90
19813;DHT22;10066;48.108;11.448;2023-04-03T03:06:46;1.90;99.90
19813;DHT22;10066;48.108;11.448;2023-04-03T03:09:13;1.90;99.90
19813;DHT22;10066;48.108;11.448;2023-04-03T03:11:40;1.90;99.90
19813;DHT22;10066;48.108;11.448;2023-04-03T03:14:07;1.90;99.90
19813;DHT22;10066;48.108;11.448;2023-04-03T03:16:35;1.90;99.90
19813;DHT22;10066;48.108;11.448;2023-04-03T03:19:02;1.90;99.90
19813;DHT22;10066;48.108;11.448;2023-04-03T03:21:30;2.00;99.90
19813;DHT22;10066;48.108;11.448;2023-04-03T03:23:57;2.10;99.90
19813;DHT22;10066;48.108;11.448;2023-04-03T03:26:24;2.10;99.90
19813;DHT22;10066;48.108;11.448;2023-04-03T03:28:50;2.10;99.90
19813;DHT22;10066;48.108;11.448;2023-04-03T03:31:17;2.10;99.90
19813;DHT22;10066;48.108;11.448;2023-04-03T03:33:46;2.10;99.90
19813;DHT22;10066;48.108;11.448;2023-04-03T03:36:13;2.10;99.90
19813;DHT22;10066;48.108;11.448;2023-04-03T03:38:40;2.20;99.90
19813;DHT22;10066;48.108;11.448;2023-04-03T03:41:07;2.10;99.90
19813;DHT22;10066;48.108;11.448;2023-04-03T03:43:34;2.20;99.90
19813;DHT22;10066;48.108;11.448;2023-04-03T03:46:01;2.20;99.90
19813;DHT22;10066;48.108;11.448;2023-04-03T03:48:28;2.10;99.90
19813;DHT22;10066;48.108;11.448;2023-04-03T03:50:57;2.20;99.90
19813;DHT22;10066;48.108;11.448;2023-04-03T03:53:24;2.20;99.90
19813;DHT22;10066;48.108;11.448;2023-04-03T03:55:51;2.20;99.90
19813;DHT22;10066;48.108;11.448;2023-04-03T03:58:18;2.20;99.90
19813;DHT22;10066;48.108;11.448;2023-04-03T04:00:45;2.20;99.90
19813;DHT22;10066;48.108;11.448;2023-04-03T04:03:12;2.30;99.90
19813;DHT22;10066;48.108;11.448;2023-04-03T04:05:39;2.30;99.90
19813;DHT22;10066;48.108;11.448;2023-04-03T04:08:07;2.30;99.90
19813;DHT22;10066;48.108;11.448;2023-04-03T04:10:35;2.20;99.90
19813;DHT22;10066;48.108;11.448;2023-04-03T04:13:03;2.30;99.90
19813;DHT22;10066;48.108;11.448;2023-04-03T04:15:30;2.30;99.90
19813;DHT22;10066;48.108;11.448;2023-04-03T04:17:57;2.20;99.90
19813;DHT22;10066;48.108;11.448;2023-04-03T04:20:24;2.20;99.90
19813;DHT22;10066;48.108;11.448;2023-04-03T04:22:51;2.20;99.90
19813;DHT22;10066;48.108;11.448;2023-04-03T04:25:19;2.10;99.90
19813;DHT22;10066;48.108;11.448;2023-04-03T04:27:46;2.10;99.90
19813;DHT22;10066;48.108;11.448;2023-04-03T04:30:13;2.20;99.90
19813;DHT22;10066;48.108;11.448;2023-04-03T04:32:40;2.20;99.90
19813;DHT22;10066;48.108;11.448;2023-04-03T04:35:08;2.10;99.90
19813;DHT22;10066;48.108;11.448;2023-04-03T04:37:35;2.10;99.90
19813;DHT22;10066;48.108;11.448;2023-04-03T04:40:02;2.10;99.90
19813;DHT22;10066;48.108;11.448;2023-04-03T04:42:30;2.10;99.90
19813;DHT22;10066;48.108;11.448;2023-04-03T04:44:57;2.10;99.90
19813;DHT22;10066;48.108;11.448;2023-04-03T04:47:24;2.10;99.90
19813;DHT22;10066;48.108;11.448;2023-04-03T04:49:51;2.10;99.90
19813;DHT22;10066;48.108;11.448;2023-04-03T04:52:18;2.10;99.90
19813;DHT22;10066;48.108;11.448;2023-04-03T04:54:45;2.10;99.90
19813;DHT22;10066;48.108;11.448;2023-04-03T04:57:12;2.10;99.90
19813;DHT22;10066;48.108;11.448;2023-04-03T04:59:40;2.10;99.90
19813;DHT22;10066;48.108;11.448;2023-04-03T05:02:07;2.10;99.90
19813;DHT22;10066;48.108;11.448;2023-04-03T05:04:34;2.20;99.90
19813;DHT22;10066;48.108;11.448;2023-04-03T05:07:01;2.10;99.90
19813;DHT22;10066;48.108;11.448;2023-04-03T05:09:28;2.10;99.90
19813;DHT22;10066;48.108;11.448;2023-04-03T05:11:54;2.10;99.90
19813;DHT22;10066;48.108;11.448;2023-04-03T05:14:22;2.00;99.90
19813;DHT22;10066;48.108;11.448;2023-04-03T05:16:50;2.10;99.90
19813;DHT22;10066;48.108;11.448;2023-04-03T05:19:19;2.10;99.90
19813;DHT22;10066;48.108;11.448;2023-04-03T05:21:46;2.10;99.90
19813;DHT22;10066;48.108;11.448;2023-04-03T05:24:14;2.10;99.90
19813;DHT22;10066;48.108;11.448;2023-04-03T05:26:41;2.10;99.90
19813;DHT22;10066;48.108;11.448;2023-04-03T05:29:07;2.10;99.90
19813;DHT22;10066;48.108;11.448;2023-04-03T05:31:35;2.10;99.90
19813;DHT22;10066;48.108;11.448;2023-04-03T05:34:03;2.10;99.90
19813;DHT22;10066;48.108;11.448;2023-04-03T05:36:30;2.10;99.90
19813;DHT22;10066;48.108;11.448;2023-04-03T05:38:57;2.10;99.90
19813;DHT22;10066;48.108;11.448;2023-04-03T05:41:24;2.00;99.90
19813;DHT22;10066;48.108;11.448;2023-04-03T05:43:51;2.00;99.90
19813;DHT22;10066;48.108;11.448;2023-04-03T05:46:19;2.00;99.90
19813;DHT22;10066;48.108;11.448;2023-04-03T05:48:46;2.00;99.90
19813;DHT22;10066;48.108;11.448;2023-04-03T05:51:17;2.00;99.90
19813;DHT22;10066;48.108;11.448;2023-04-03T05:53:45;2.00;99.90
19813;DHT22;10066;48.108;11.448;2023-04-03T05:56:13;2.10;99.90
19813;DHT22;10066;48.108;11.448;2023-04-03T05:58:40;2.10;99.90
19813;DHT22;10066;48.108;11.448;2023-04-03T06:01:07;2.20;99.90
19813;DHT22;10066;48.108;11.448;2023-04-03T06:03:34;2.20;99.90
19813;DHT22;10066;48.108;11.448;2023-04-03T06:06:03;2.20;99.90
19813;DHT22;10066;48.108;11.448;2023-04-03T06:08:32;2.20;99.90
19813;DHT22;10066;48.108;11.448;2023-04-03T06:11:00;2.30;99.90
19813;DHT22;10066;48.108;11.448;2023-04-03T06:13:28;2.30;99.90
19813;DHT22;10066;48.108;11.448;2023-04-03T06:15:55;2.40;99.90
19813;DHT22;10066;48.108;11.448;2023-04-03T06:18:22;2.40;99.90
19813;DHT22;10066;48.108;11.448;2023-04-03T06:20:49;2.40;99.90
19813;DHT22;10066;48.108;11.448;2023-04-03T06:23:16;2.30;99.90
19813;DHT22;10066;48.108;11.448;2023-04-03T06:25:45;2.30;99.90
19813;DHT22;10066;48.108;11.448;2023-04-03T06:28:12;2.30;99.90
19813;DHT22;10066;48.108;11.448;2023-04-03T06:30:39;2.30;99.90
19813;DHT22;10066;48.108;11.448;2023-04-03T06:33:06;2.30;99.90
19813;DHT22;10066;48.108;11.448;2023-04-03T06:35:34;2.30;99.90
19813;DHT22;10066;48.108;11.448;2023-04-03T06:38:03;2.30;99.90
19813;DHT22;10066;48.108;11.448;2023-04-03T06:40:35;2.40;99.90
19813;DHT22;10066;48.108;11.448;2023-04-03T06:43:03;2.40;99.90
19813;DHT22;10066;48.108;11.448;2023-04-03T06:45:31;2.50;99.90
19813;DHT22;10066;48.108;11.448;2023-04-03T06:47:58;2.60;99.90
19813;DHT22;10066;48.108;11.448;2023-04-03T06:50:25;2.70;99.90
19813;DHT22;10066;48.108;11.448;2023-04-03T06:52:52;2.80;99.90
19813;DHT22;10066;48.108;11.448;2023-04-03T06:55:20;2.80;99.90
19813;DHT22;10066;48.108;11.448;2023-04-03T06:57:47;2.90;99.90
19813;DHT22;10066;48.108;11.448;2023-04-03T07:00:16;3.00;99.90
19813;DHT22;10066;48.108;11.448;2023-04-03T07:02:44;3.00;99.90
19813;DHT22;10066;48.108;11.448;2023-04-03T07:05:11;3.10;99.90
19813;DHT22;10066;48.108;11.448;2023-04-03T07:07:37;3.20;99.90
19813;DHT22;10066;48.108;11.448;2023-04-03T07:10:06;3.20;99.90
19813;DHT22;10066;48.108;11.448;2023-04-03T07:12:33;3.30;99.90
19813;DHT22;10066;48.108;11.448;2023-04-03T07:15:00;3.20;99.90
19813;DHT22;10066;48.108;11.448;2023-04-03T07:17:28;3.20;99.90
19813;DHT22;10066;48.108;11.448;2023-04-03T07:19:55;3.20;99.90
19813;DHT22;10066;48.108;11.448;2023-04-03T07:22:22;3.30;99.90
19813;DHT22;10066;48.108;11.448;2023-04-03T07:24:49;3.30;99.90
19813;DHT22;10066;48.108;11.448;2023-04-03T07:27:16;3.40;99.90
19813;DHT22;10066;48.108;11.448;2023-04-03T07:29:43;3.50;99.90
19813;DHT22;10066;48.108;11.448;2023-04-03T07:32:10;3.50;99.90
19813;DHT22;10066;48.108;11.448;2023-04-03T07:34:39;3.50;99.90
19813;DHT22;10066;48.108;11.448;2023-04-03T07:37:06;3.50;99.90
19813;DHT22;10066;48.108;11.448;2023-04-03T07:39:34;3.50;99.90
19813;DHT22;10066;48.108;11.448;2023-04-03T07:42:01;3.50;99.90
19813;DHT22;10066;48.108;11.448;2023-04-03T07:44:29;3.40;99.90
19813;DHT22;10066;48.108;11.448;2023-04-03T07:46:56;3.30;99.90
19813;DHT22;10066;48.108;11.448;2023-04-03T07:49:23;3.20;99.90
19813;DHT22;10066;48.108;11.448;2023-04-03T07:51:51;3.20;99.90
19813;DHT22;10066;48.108;11.448;2023-04-03T07:54:19;3.10;99.90
19813;DHT22;10066;48.108;11.448;2023-04-03T07:56:46;3.10;99.90
19813;DHT22;10066;48.108;11.448;2023-04-03T07:59:12;3.10;99.90
19813;DHT22;10066;48.108;11.448;2023-04-03T08:01:40;3.10;99.90
19813;DHT22;10066;48.108;11.448;2023-04-03T08:04:06;3.10;99.90
19813;DHT22;10066;48.108;11.448;2023-04-03T08:06:34;3.10;99.90
19813;DHT22;10066;48.108;11.448;2023-04-03T08:09:03;3.20;99.90
19813;DHT22;10066;48.108;11.448;2023-04-03T08:11:30;3.20;99.90
19813;DHT22;10066;48.108;11.448;2023-04-03T08:13:57;3.20;99.90
19813;DHT22;10066;48.108;11.448;2023-04-03T08:16:25;3.30;99.90
19813;DHT22;10066;48.108;11.448;2023-04-03T08:18:53;3.30;99.90
19813;DHT22;10066;48.108;11.448;2023-04-03T08:21:20;3.30;99.90
19813;DHT22;10066;48.108;11.448;2023-04-03T08:23:49;3.40;99.90
19813;DHT22;10066;48.108;11.448;2023-04-03T08:26:19;3.40;99.90
19813;DHT22;10066;48.108;11.448;2023-04-03T08:28:47;3.50;99.90
19813;DHT22;10066;48.108;11.448;2023-04-03T08:31:16;3.60;99.90
19813;DHT22;10066;48.108;11.448;2023-04-03T08:33:44;3.50;99.90
19813;DHT22;10066;48.108;11.448;2023-04-03T08:36:18;3.50;99.90
19813;DHT22;10066;48.108;11.448;2023-04-03T08:38:46;3.50;99.90
19813;DHT22;10066;48.108;11.448;2023-04-03T08:41:16;3.60;99.90
19813;DHT22;10066;48.108;11.448;2023-04-03T08:43:57;3.60;99.90
19813;DHT22;10066;48.108;11.448;2023-04-03T08:46:35;3.60;99.90
19813;DHT22;10066;48.108;11.448;2023-04-03T08:49:06;3.70;99.90
19813;DHT22;10066;48.108;11.448;2023-04-03T08:51:38;3.80;99.90
19813;DHT22;10066;48.108;11.448;2023-04-03T08:54:18;3.80;99.90
19813;DHT22;10066;48.108;11.448;2023-04-03T08:56:48;3.80;99.90
19813;DHT22;10066;48.108;11.448;2023-04-03T08:59:22;3.90;99.90
19813;DHT22;10066;48.108;11.448;2023-04-03T09:01:51;4.00;99.90
19813;DHT22;10066;48.108;11.448;2023-04-03T09:04:19;4.00;99.90
19813;DHT22;10066;48.108;11.448;2023-04-03T09:06:49;4.10;99.90
19813;DHT22;10066;48.108;11.448;2023-04-03T09:09:29;4.20;99.90
19813;DHT22;10066;48.108;11.448;2023-04-03T09:12:03;4.30;99.90
19813;DHT22;10066;48.108;11.448;2023-04-03T09:14:40;4.30;99.90
19813;DHT22;10066;48.108;11.448;2023-04-03T09:17:13;4.40;99.90
19813;DHT22;10066;48.108;11.448;2023-04-03T09:19:49;4.50;99.90
19813;DHT22;10066;48.108;11.448;2023-04-03T09:22:21;4.60;99.90
19813;DHT22;10066;48.108;11.448;2023-04-03T09:24:55;4.70;99.90
19813;DHT22;10066;48.108;11.448;2023-04-03T09:27:24;4.80;99.90
19813;DHT22;10066;48.108;11.448;2023-04-03T09:29:53;4.90;99.90
19813;DHT22;10066;48.108;11.448;2023-04-03T09:32:26;5.00;99.90
19813;DHT22;10066;48.108;11.448;2023-04-03T09:34:54;5.10;99.90
19813;DHT22;10066;48.108;11.448;2023-04-03T09:37:40;5.20;99.90
19813;DHT22;10066;48.108;11.448;2023-04-03T09:40:30;5.10;99.90
19813;DHT22;10066;48.108;11.448;2023-04-03T09:42:59;5.20;99.90
19813;DHT22;10066;48.108;11.448;2023-04-03T09:45:29;5.30;99.90
19813;DHT22;10066;48.108;11.448;2023-04-03T09:48:08;5.20;99.90
19813;DHT22;10066;48.108;11.448;2023-04-03T09:50:36;5.10;99.90
19813;DHT22;10066;48.108;11.448;2023-04-03T09:53:07;5.20;99.90
19813;DHT22;10066;48.108;11.448;2023-04-03T09:55:52;5.20;99.90
19813;DHT22;10066;48.108;11.448;2023-04-03T09:58:25;5.20;99.90
19813;DHT22;10066;48.108;11.448;2023-04-03T10:00:58;5.20;99.90
19813;DHT22;10066;48.108;11.448;2023-04-03T10:03:29;5.20;99.90
19813;DHT22;10066;48.108;11.448;2023-04-03T10:05:58;5.10;99.90
19813;DHT22;10066;48.108;11.448;2023-04-03T10:08:28;4.90;99.90
19813;DHT22;10066;48.108;11.448;2023-04-03T10:11:14;4.90;99.90
19813;DHT22;10066;48.108;11.448;2023-04-03T10:13:53;4.80;99.90
19813;DHT22;10066;48.108;11.448;2023-04-03T10:16:26;4.80;99.90
19813;DHT22;10066;48.108;11.448;2023-04-03T10:19:03;4.80;99.90
19813;DHT22;10066;48.108;11.448;2023-04-03T10:21:39;4.80;99.90
19813;DHT22;10066;48.108;11.448;2023-04-03T10:24:12;4.60;99.90
19813;DHT22;10066;48.108;11.448;2023-04-03T10:26:47;4.50;99.90
19813;DHT22;10066;48.108;11.448;2023-04-03T10:29:27;4.40;99.90
19813;DHT22;10066;48.108;11.448;2023-04-03T10:32:07;4.40;99.90
19813;DHT22;10066;48.108;11.448;2023-04-03T10:34:41;4.40;99.90
19813;DHT22;10066;48.108;11.448;2023-04-03T10:37:16;4.30;99.90
19813;DHT22;10066;48.108;11.448;2023-04-03T10:39:52;4.00;99.90
19813;DHT22;10066;48.108;11.448;2023-04-03T10:42:26;3.90;99.90
19813;DHT22;10066;48.108;11.448;2023-04-03T10:45:08;3.70;99.90
19813;DHT22;10066;48.108;11.448;2023-04-03T10:47:46;3.50;99.90
19813;DHT22;10066;48.108;11.448;2023-04-03T10:50:38;3.30;99.90
19813;DHT22;10066;48.108;11.448;2023-04-03T10:53:13;3.20;99.90
19813;DHT22;10066;48.108;11.448;2023-04-03T10:55:46;2.90;99.90
19813;DHT22;10066;48.108;11.448;2023-04-03T10:58:25;2.80;99.90
19813;DHT22;10066;48.108;11.448;2023-04-03T11:00:59;2.90;99.90
19813;DHT22;10066;48.108;11.448;2023-04-03T11:03:32;2.90;99.90
19813;DHT22;10066;48.108;11.448;2023-04-03T11:06:03;2.90;99.90
19813;DHT22;10066;48.108;11.448;2023-04-03T11:08:35;3.00;99.90
19813;DHT22;10066;48.108;11.448;2023-04-03T11:11:08;3.10;99.90
19813;DHT22;10066;48.108;11.448;2023-04-03T11:13:40;3.10;99.90
19813;DHT22;10066;48.108;11.448;2023-04-03T11:16:09;3.20;99.90
19813;DHT22;10066;48.108;11.448;2023-04-03T11:18:43;3.30;99.90
19813;DHT22;10066;48.108;11.448;2023-04-03T11:21:16;3.40;99.90
19813;DHT22;10066;48.108;11.448;2023-04-03T11:23:47;3.50;99.90
19813;DHT22;10066;48.108;11.448;2023-04-03T11:26:15;3.50;99.90
19813;DHT22;10066;48.108;11.448;2023-04-03T11:28:43;3.70;99.90
19813;DHT22;10066;48.108;11.448;2023-04-03T11:31:22;3.70;99.90
19813;DHT22;10066;48.108;11.448;2023-04-03T11:34:03;3.70;99.90
19813;DHT22;10066;48.108;11.448;2023-04-03T11:36:33;3.90;99.90
19813;DHT22;10066;48.108;11.448;2023-04-03T11:39:24;3.90;99.90
19813;DHT22;10066;48.108;11.448;2023-04-03T11:41:53;4.00;99.90
19813;DHT22;10066;48.108;11.448;2023-04-03T11:44:32;4.10;99.90
19813;DHT22;10066;48.108;11.448;2023-04-03T11:47:01;4.10;99.90
19813;DHT22;10066;48.108;11.448;2023-04-03T11:49:57;4.20;99.90
19813;DHT22;10066;48.108;11.448;2023-04-03T11:52:55;4.20;99.90
19813;DHT22;10066;48.108;11.448;2023-04-03T11:55:56;4.30;99.90
19813;DHT22;10066;48.108;11.448;2023-04-03T11:58:24;4.30;99.90
19813;DHT22;10066;48.108;11.448;2023-04-03T12:00:54;4.30;99.90
19813;DHT22;10066;48.108;11.448;2023-04-03T12:10:13;4.50;99.90
19813;DHT22;10066;48.108;11.448;2023-04-03T12:12:41;4.70;99.90
19813;DHT22;10066;48.108;11.448;2023-04-03T12:15:41;4.80;99.90
19813;DHT22;10066;48.108;11.448;2023-04-03T12:21:19;5.00;99.90
19813;DHT22;10066;48.108;11.448;2023-04-03T12:24:01;5.00;99.90
19813;DHT22;10066;48.108;11.448;2023-04-03T12:26:35;5.10;99.90
19813;DHT22;10066;48.108;11.448;2023-04-03T12:29:13;5.30;99.90
19813;DHT22;10066;48.108;11.448;2023-04-03T12:31:50;5.30;99.90
19813;DHT22;10066;48.108;11.448;2023-04-03T12:34:33;5.40;99.90
19813;DHT22;10066;48.108;11.448;2023-04-03T12:37:14;5.40;99.90
19813;DHT22;10066;48.108;11.448;2023-04-03T12:39:58;5.50;99.90
19813;DHT22;10066;48.108;11.448;2023-04-03T12:42:52;5.50;99.90
19813;DHT22;10066;48.108;11.448;2023-04-03T12:45:23;5.50;99.90
19813;DHT22;10066;48.108;11.448;2023-04-03T12:47:52;5.60;99.90
19813;DHT22;10066;48.108;11.448;2023-04-03T12:50:22;5.70;99.90
19813;DHT22;10066;48.108;11.448;2023-04-03T12:52:54;5.70;99.90
19813;DHT22;10066;48.108;11.448;2023-04-03T12:55:23;5.70;99.90
19813;DHT22;10066;48.108;11.448;2023-04-03T12:57:52;5.70;99.90
19813;DHT22;10066;48.108;11.448;2023-04-03T13:00:21;5.80;99.90
19813;DHT22;10066;48.108;11.448;2023-04-03T13:02:49;5.80;99.90
19813;DHT22;10066;48.108;11.448;2023-04-03T13:05:17;5.80;99.90
19813;DHT22;10066;48.108;11.448;2023-04-03T13:07:48;5.80;99.90
19813;DHT22;10066;48.108;11.448;2023-04-03T13:10:18;5.90;99.90
19813;DHT22;10066;48.108;11.448;2023-04-03T13:12:52;6.10;99.90
19813;DHT22;10066;48.108;11.448;2023-04-03T13:15:26;6.30;99.90
19813;DHT22;10066;48.108;11.448;2023-04-03T13:17:54;6.40;99.90
19813;DHT22;10066;48.108;11.448;2023-04-03T13:20:24;6.50;99.90
19813;DHT22;10066;48.108;11.448;2023-04-03T13:22:55;6.50;99.90
19813;DHT22;10066;48.108;11.448;2023-04-03T13:25:24;6.50;99.90
19813;DHT22;10066;48.108;11.448;2023-04-03T13:27:55;6.40;99.90
19813;DHT22;10066;48.108;11.448;2023-04-03T13:30:26;6.40;99.90
19813;DHT22;10066;48.108;11.448;2023-04-03T13:32:55;6.30;98.10
19813;DHT22;10066;48.108;11.448;2023-04-03T13:35:36;6.30;99.90
19813;DHT22;10066;48.108;11.448;2023-04-03T13:38:06;6.20;99.10
19813;DHT22;10066;48.108;11.448;2023-04-03T13:40:33;6.20;99.40
19813;DHT22;10066;48.108;11.448;2023-04-03T13:43:05;6.10;98.00
19813;DHT22;10066;48.108;11.448;2023-04-03T13:45:34;6.10;96.70
19813;DHT22;10066;48.108;11.448;2023-04-03T13:48:14;6.20;99.90
19813;DHT22;10066;48.108;11.448;2023-04-03T13:50:54;6.10;97.50
19813;DHT22;10066;48.108;11.448;2023-04-03T13:53:22;6.10;99.40
19813;DHT22;10066;48.108;11.448;2023-04-03T13:56:00;6.10;96.30
19813;DHT22;10066;48.108;11.448;2023-04-03T13:58:33;6.10;95.30
19813;DHT22;10066;48.108;11.448;2023-04-03T14:01:06;6.10;95.60
19813;DHT22;10066;48.108;11.448;2023-04-03T14:03:44;6.00;97.70
19813;DHT22;10066;48.108;11.448;2023-04-03T14:06:13;5.90;95.90
19813;DHT22;10066;48.108;11.448;2023-04-03T14:08:41;5.80;98.80
19813;DHT22;10066;48.108;11.448;2023-04-03T14:11:13;5.90;99.80
19813;DHT22;10066;48.108;11.448;2023-04-03T14:13:44;5.90;99.90
19813;DHT22;10066;48.108;11.448;2023-04-03T14:16:15;5.90;96.80
19813;DHT22;10066;48.108;11.448;2023-04-03T14:18:44;5.90;96.00
19813;DHT22;10066;48.108;11.448;2023-04-03T14:21:12;5.80;94.80
19813;DHT22;10066;48.108;11.448;2023-04-03T14:23:40;6.80;98.90
19813;DHT22;10066;48.108;11.448;2023-04-03T14:26:10;5.70;95.00
19813;DHT22;10066;48.108;11.448;2023-04-03T14:28:38;5.60;97.70
19813;DHT22;10066;48.108;11.448;2023-04-03T14:31:08;5.70;99.10
19813;DHT22;10066;48.108;11.448;2023-04-03T14:33:36;5.70;97.50
19813;DHT22;10066;48.108;11.448;2023-04-03T14:36:12;5.70;99.70
19813;DHT22;10066;48.108;11.448;2023-04-03T14:38:39;5.70;94.80
19813;DHT22;10066;48.108;11.448;2023-04-03T14:41:06;5.60;95.30
19813;DHT22;10066;48.108;11.448;2023-04-03T14:43:33;5.50;93.30
19813;DHT22;10066;48.108;11.448;2023-04-03T14:46:00;5.40;96.60
19813;DHT22;10066;48.108;11.448;2023-04-03T14:48:29;5.40;93.50
19813;DHT22;10066;48.108;11.448;2023-04-03T14:50:57;5.30;94.50
19813;DHT22;10066;48.108;11.448;2023-04-03T14:53:24;5.20;95.10
19813;DHT22;10066;48.108;11.448;2023-04-03T14:55:51;5.10;94.40
19813;DHT22;10066;48.108;11.448;2023-04-03T14:58:20;5.10;96.90
19813;DHT22;10066;48.108;11.448;2023-04-03T15:00:47;5.10;92.80
19813;DHT22;10066;48.108;11.448;2023-04-03T15:03:16;5.10;93.40
19813;DHT22;10066;48.108;11.448;2023-04-03T15:05:46;5.20;94.90
19813;DHT22;10066;48.108;11.448;2023-04-03T15:08:19;5.30;94.80
19813;DHT22;10066;48.108;11.448;2023-04-03T15:10:47;5.30;93.60
19813;DHT22;10066;48.108;11.448;2023-04-03T15:13:15;5.30;93.00
19813;DHT22;10066;48.108;11.448;2023-04-03T15:15:42;5.30;90.10
19813;DHT22;10066;48.108;11.448;2023-04-03T15:18:15;5.20;90.10
19813;DHT22;10066;48.108;11.448;2023-04-03T15:20:45;5.20;92.10
19813;DHT22;10066;48.108;11.448;2023-04-03T15:23:15;5.00;89.10
19813;DHT22;10066;48.108;11.448;2023-04-03T15:25:42;5.00;89.30
19813;DHT22;10066;48.108;11.448;2023-04-03T15:28:13;5.00;96.30
19813;DHT22;10066;48.108;11.448;2023-04-03T15:30:44;4.90;94.00
19813;DHT22;10066;48.108;11.448;2023-04-03T15:33:11;4.80;91.10
19813;DHT22;10066;48.108;11.448;2023-04-03T15:35:37;4.80;93.40
19813;DHT22;10066;48.108;11.448;2023-04-03T15:38:06;4.70;93.60
19813;DHT22;10066;48.108;11.448;2023-04-03T15:40:33;4.80;94.40
19813;DHT22;10066;48.108;11.448;2023-04-03T15:43:00;4.70;96.60
19813;DHT22;10066;48.108;11.448;2023-04-03T15:45:29;4.70;95.60
19813;DHT22;10066;48.108;11.448;2023-04-03T15:47:56;4.60;92.80
19813;DHT22;10066;48.108;11.448;2023-04-03T15:50:24;4.60;92.10
19813;DHT22;10066;48.108;11.448;2023-04-03T15:52:51;4.60;90.00
19813;DHT22;10066;48.108;11.448;2023-04-03T15:55:21;4.50;93.20
19813;DHT22;10066;48.108;11.448;2023-04-03T15:57:48;4.60;94.50